Time;durP1;ratioP1;P1;durP2;ratioP2;P2;SDS_P1;SDS_P2;PMS_P1;PMS_P2;Temp;Humidity;BMP_temperature;BMP_pressure;BME280_temperature;BME280_humidity;BME280_pressure;Samples;Min_cycle;Max_cycle;Signal;HPM_P1;HPM_P2
2023/08/05 00:02:23;;;;;;;5.97;2.67;;;;;;;;;;4935464;29;20052;-78
2023/08/05 00:04:49;;;;;;;7.72;1.90;;;;;;;;;;4918905;29;20444;-77
2023/08/05 00:07:15;;;;;;;7.32;2.10;;;;;;;;;;4935698;29;20034;-77
2023/08/05 00:09:40;;;;;;;5.10;2.05;;;;;;;;;;4918766;29;20372;-76
2023/08/05 00:12:06;;;;;;;4.90;1.88;;;;;;;;;;4934303;29;20091;-77
2023/08/05 00:14:33;;;;;;;5.10;2.45;;;;;;;;;;4935467;29;20087;-77
2023/08/05 00:16:59;;;;;;;6.65;1.90;;;;;;;;;;4918661;29;20106;-77
2023/08/05 00:19:24;;;;;;;3.97;1.88;;;;;;;;;;4935477;29;20479;-76
2023/08/05 00:21:50;;;;;;;6.40;1.98;;;;;;;;;;4918257;29;20384;-78
2023/08/05 00:24:15;;;;;;;4.80;1.77;;;;;;;;;;4918493;29;20027;-77
2023/08/05 00:26:41;;;;;;;5.70;1.70;;;;;;;;;;4935421;29;20031;-77
2023/08/05 00:29:06;;;;;;;3.58;1.60;;;;;;;;;;4917339;29;20023;-77
2023/08/05 00:31:35;;;;;;;5.03;2.13;;;;;;;;;;4918692;29;20090;-77
2023/08/05 00:34:00;;;;;;;6.15;1.60;;;;;;;;;;4935048;29;20036;-77
2023/08/05 00:36:26;;;;;;;11.45;2.20;;;;;;;;;;4918262;29;20032;-77
2023/08/05 00:38:51;;;;;;;6.32;1.88;;;;;;;;;;4917977;29;20031;-77
2023/08/05 00:41:17;;;;;;;7.68;1.85;;;;;;;;;;4886846;29;20043;-76
2023/08/05 00:43:43;;;;;;;5.45;1.55;;;;;;;;;;4933615;29;20035;-78
2023/08/05 00:46:09;;;;;;;4.28;1.38;;;;;;;;;;4935115;29;20525;-78
2023/08/05 00:48:35;;;;;;;5.13;1.70;;;;;;;;;;4935176;29;20024;-77
2023/08/05 00:51:01;;;;;;;7.03;2.38;;;;;;;;;;4918106;29;20037;-77
2023/08/05 00:53:27;;;;;;;4.28;1.42;;;;;;;;;;4902104;29;20035;-78
2023/08/05 00:55:53;;;;;;;5.43;1.85;;;;;;;;;;4918123;29;20038;-77
2023/08/05 00:58:22;;;;;;;3.58;1.60;;;;;;;;;;4918013;29;20083;-78
2023/08/05 01:00:47;;;;;;;4.47;1.65;;;;;;;;;;4917186;29;20038;-77
2023/08/05 01:03:13;;;;;;;7.75;2.15;;;;;;;;;;4934778;29;20110;-76
2023/08/05 01:05:43;;;;;;;7.55;2.25;;;;;;;;;;4886931;29;20050;-77
2023/08/05 01:08:09;;;;;;;4.00;1.67;;;;;;;;;;4917774;29;20075;-77
2023/08/05 01:10:35;;;;;;;4.80;2.10;;;;;;;;;;4917882;29;20051;-77
2023/08/05 01:13:06;;;;;;;4.85;1.90;;;;;;;;;;4901934;29;20082;-76
2023/08/05 01:15:31;;;;;;;6.05;2.00;;;;;;;;;;4916906;29;20082;-77
2023/08/05 01:17:57;;;;;;;3.60;2.13;;;;;;;;;;4902147;29;20044;-77
2023/08/05 01:20:26;;;;;;;5.20;1.92;;;;;;;;;;4917691;29;20036;-77
2023/08/05 01:22:54;;;;;;;10.13;2.58;;;;;;;;;;4934459;29;20507;-78
2023/08/05 01:25:27;;;;;;;7.65;2.22;;;;;;;;;;4934590;29;20563;-77
2023/08/05 01:27:54;;;;;;;7.28;1.98;;;;;;;;;;4917629;29;20024;-77
2023/08/05 01:30:20;;;;;;;4.70;2.25;;;;;;;;;;4917787;29;20031;-78
2023/08/05 01:32:49;;;;;;;3.53;1.70;;;;;;;;;;4935109;29;20024;-77
2023/08/05 01:35:17;;;;;;;3.88;1.88;;;;;;;;;;4921492;29;20043;-77
2023/08/05 01:37:43;;;;;;;4.38;1.73;;;;;;;;;;4921467;29;20434;-77
2023/08/05 01:40:09;;;;;;;6.32;2.13;;;;;;;;;;4938578;29;20031;-78
2023/08/05 01:42:34;;;;;;;3.78;2.00;;;;;;;;;;4921065;29;20063;-77
2023/08/05 01:45:00;;;;;;;8.63;2.13;;;;;;;;;;4921344;29;20043;-77
2023/08/05 01:47:25;;;;;;;7.00;1.85;;;;;;;;;;4909019;29;20036;-77
2023/08/05 01:49:54;;;;;;;3.72;1.80;;;;;;;;;;4918045;29;20036;-76
2023/08/05 01:52:19;;;;;;;5.00;1.92;;;;;;;;;;4919066;29;20038;-76
2023/08/05 01:54:46;;;;;;;4.88;2.00;;;;;;;;;;4918021;29;20032;-77
2023/08/05 01:57:11;;;;;;;6.15;2.50;;;;;;;;;;4919161;29;20032;-76
2023/08/05 01:59:37;;;;;;;5.00;1.90;;;;;;;;;;4902331;29;20302;-76
2023/08/05 02:02:03;;;;;;;3.95;1.70;;;;;;;;;;4902032;29;20028;-76
2023/08/05 02:04:28;;;;;;;8.38;2.10;;;;;;;;;;4901145;29;20451;-76
2023/08/05 02:06:54;;;;;;;5.60;2.10;;;;;;;;;;4902381;29;20028;-76
2023/08/05 02:09:19;;;;;;;3.95;1.90;;;;;;;;;;4917875;29;20036;-77
2023/08/05 02:11:48;;;;;;;4.47;1.92;;;;;;;;;;4918765;29;20048;-76
2023/08/05 02:14:13;;;;;;;3.70;1.90;;;;;;;;;;4886463;29;20074;-77
2023/08/05 02:16:39;;;;;;;6.47;2.10;;;;;;;;;;4918782;29;20032;-77
2023/08/05 02:19:04;;;;;;;6.32;1.60;;;;;;;;;;4918823;29;20440;-78
2023/08/05 02:21:33;;;;;;;6.72;1.95;;;;;;;;;;4904498;29;20036;-76
2023/08/05 02:23:59;;;;;;;6.40;2.13;;;;;;;;;;4889210;29;20032;-75
2023/08/05 02:26:24;;;;;;;5.25;2.28;;;;;;;;;;4937593;29;20106;-78
2023/08/05 02:28:50;;;;;;;4.93;2.03;;;;;;;;;;4904944;29;20517;-77
2023/08/05 02:31:16;;;;;;;7.63;2.08;;;;;;;;;;4920470;29;20498;-76
2023/08/05 02:33:41;;;;;;;4.95;2.20;;;;;;;;;;4920403;29;20035;-77
2023/08/05 02:36:07;;;;;;;6.00;2.00;;;;;;;;;;4901046;29;20036;-77
2023/08/05 02:38:33;;;;;;;5.15;2.10;;;;;;;;;;4885995;29;20040;-77
2023/08/05 02:41:04;;;;;;;3.20;1.80;;;;;;;;;;4901360;29;20176;-78
2023/08/05 02:43:30;;;;;;;4.53;1.90;;;;;;;;;;4906591;23;20048;-77
2023/08/05 02:45:58;;;;;;;5.80;1.90;;;;;;;;;;4901473;29;20032;-77
2023/08/05 02:48:24;;;;;;;4.25;2.00;;;;;;;;;;4886061;29;20396;-76
2023/08/05 02:50:50;;;;;;;6.28;2.55;;;;;;;;;;4903625;29;20028;-75
2023/08/05 02:53:16;;;;;;;4.70;2.10;;;;;;;;;;4920012;29;20487;-76
2023/08/05 02:55:42;;;;;;;5.43;1.95;;;;;;;;;;4904618;29;20130;-75
2023/08/05 02:58:07;;;;;;;3.75;2.08;;;;;;;;;;4937250;29;20501;-75
2023/08/05 03:00:33;;;;;;;4.50;2.22;;;;;;;;;;4920057;29;20517;-75
2023/08/05 03:02:58;;;;;;;6.85;2.20;;;;;;;;;;4920006;29;20110;-75
2023/08/05 03:05:24;;;;;;;6.13;2.15;;;;;;;;;;4920018;29;20032;-75
2023/08/05 03:07:49;;;;;;;4.00;2.00;;;;;;;;;;4935523;29;20028;-76
2023/08/05 03:10:15;;;;;;;5.07;2.30;;;;;;;;;;4919924;29;20035;-75
2023/08/05 03:12:41;;;;;;;6.63;2.38;;;;;;;;;;4904067;29;20046;-77
2023/08/05 03:15:07;;;;;;;7.63;2.60;;;;;;;;;;4919958;29;20040;-75
2023/08/05 03:17:34;;;;;;;4.97;2.15;;;;;;;;;;4936809;29;20171;-76
2023/08/05 03:20:01;;;;;;;6.93;2.30;;;;;;;;;;4904172;29;20031;-75
2023/08/05 03:22:31;;;;;;;6.55;2.22;;;;;;;;;;4919633;29;20055;-74
2023/08/05 03:24:56;;;;;;;5.80;2.42;;;;;;;;;;4902380;29;20099;-73
2023/08/05 03:27:22;;;;;;;4.53;2.38;;;;;;;;;;4919785;29;20039;-75
2023/08/05 03:29:49;;;;;;;3.20;1.90;;;;;;;;;;4919492;29;20039;-75
2023/08/05 03:32:14;;;;;;;3.78;2.20;;;;;;;;;;4936460;29;20106;-76
2023/08/05 03:34:41;;;;;;;7.75;3.88;;;;;;;;;;4919536;29;20035;-75
2023/08/05 03:37:06;;;;;;;6.22;2.40;;;;;;;;;;4936479;29;20082;-75
2023/08/05 03:39:33;;;;;;;4.95;2.40;;;;;;;;;;4919426;29;20036;-75
2023/08/05 03:41:58;;;;;;;4.60;2.20;;;;;;;;;;4934746;29;20514;-75
2023/08/05 03:44:28;;;;;;;3.90;1.83;;;;;;;;;;4919522;29;20028;-76
2023/08/05 03:46:54;;;;;;;4.75;2.33;;;;;;;;;;4919466;29;20411;-76
2023/08/05 03:49:19;;;;;;;8.85;2.67;;;;;;;;;;4919230;29;20024;-77
2023/08/05 03:51:44;;;;;;;5.75;2.50;;;;;;;;;;4935122;29;20028;-76
2023/08/05 03:54:10;;;;;;;5.05;2.22;;;;;;;;;;4918935;29;20102;-74
2023/08/05 03:56:36;;;;;;;6.50;2.58;;;;;;;;;;4917092;29;20055;-76
2023/08/05 03:59:02;;;;;;;4.85;2.22;;;;;;;;;;4903556;29;20479;-76
2023/08/05 04:01:29;;;;;;;4.57;2.25;;;;;;;;;;4918996;29;20028;-76
2023/08/05 04:03:55;;;;;;;3.25;1.80;;;;;;;;;;4935747;29;20483;-75
2023/08/05 04:06:20;;;;;;;6.55;2.42;;;;;;;;;;4935846;29;20032;-74
2023/08/05 04:08:53;;;;;;;4.90;2.30;;;;;;;;;;4919012;29;20086;-75
2023/08/05 04:11:19;;;;;;;8.65;2.10;;;;;;;;;;4934445;29;20068;-75
2023/08/05 04:13:45;;;;;;;5.18;2.30;;;;;;;;;;4918727;29;20039;-75
2023/08/05 04:16:11;;;;;;;3.63;1.95;;;;;;;;;;4904359;29;20033;-74
2023/08/05 04:18:38;;;;;;;5.30;2.13;;;;;;;;;;4938922;29;20023;-74
2023/08/05 04:21:04;;;;;;;6.00;2.35;;;;;;;;;;4924101;29;20087;-75
2023/08/05 04:23:32;;;;;;;5.93;2.45;;;;;;;;;;4949794;29;20047;-74
2023/08/05 04:25:59;;;;;;;8.00;2.25;;;;;;;;;;4931708;29;20031;-76
2023/08/05 04:28:25;;;;;;;3.70;1.90;;;;;;;;;;4942716;29;20028;-73
2023/08/05 04:30:52;;;;;;;3.50;2.20;;;;;;;;;;4925515;29;20090;-74
2023/08/05 04:33:17;;;;;;;4.30;2.00;;;;;;;;;;4940707;29;20035;-75
2023/08/05 04:35:49;;;;;;;5.55;3.00;;;;;;;;;;4938686;29;20040;-75
2023/08/05 04:38:15;;;;;;;5.38;2.10;;;;;;;;;;4903438;29;20035;-75
2023/08/05 04:40:40;;;;;;;8.63;2.50;;;;;;;;;;4935741;29;20027;-75
2023/08/05 04:43:06;;;;;;;2.95;1.77;;;;;;;;;;4935362;29;20039;-76
2023/08/05 04:45:31;;;;;;;5.25;1.98;;;;;;;;;;4934671;29;20035;-75
2023/08/05 04:47:57;;;;;;;5.63;1.80;;;;;;;;;;4919108;29;20095;-75
2023/08/05 04:50:22;;;;;;;4.90;2.00;;;;;;;;;;4918946;29;20031;-75
2023/08/05 04:52:48;;;;;;;7.00;2.75;;;;;;;;;;4935570;29;20625;-76
2023/08/05 04:55:15;;;;;;;4.38;1.80;;;;;;;;;;4918548;29;20031;-75
2023/08/05 04:57:42;;;;;;;5.50;2.03;;;;;;;;;;4918505;29;20036;-75
2023/08/05 05:00:07;;;;;;;6.28;2.28;;;;;;;;;;4916558;29;20514;-75
2023/08/05 05:02:33;;;;;;;4.85;2.30;;;;;;;;;;4934964;29;20047;-75
2023/08/05 05:04:59;;;;;;;9.30;2.30;;;;;;;;;;4934427;29;20031;-76
2023/08/05 05:07:24;;;;;;;5.95;2.38;;;;;;;;;;4932920;29;20372;-76
2023/08/05 05:09:50;;;;;;;6.72;2.58;;;;;;;;;;4934955;29;20036;-75
2023/08/05 05:12:15;;;;;;;5.60;2.40;;;;;;;;;;4917823;29;20036;-75
2023/08/05 05:14:45;;;;;;;6.35;2.10;;;;;;;;;;4934926;29;20032;-75
2023/08/05 05:17:14;;;;;;;4.65;2.35;;;;;;;;;;4932456;29;20035;-76
2023/08/05 05:19:39;;;;;;;4.53;2.50;;;;;;;;;;4934801;29;20031;-74
2023/08/05 05:22:05;;;;;;;4.90;2.20;;;;;;;;;;4917662;29;20063;-75
2023/08/05 05:24:30;;;;;;;3.50;2.17;;;;;;;;;;4902181;29;20027;-75
2023/08/05 05:26:57;;;;;;;4.90;2.40;;;;;;;;;;4933727;29;20376;-75
2023/08/05 05:29:23;;;;;;;4.50;2.40;;;;;;;;;;4934834;29;20064;-75
2023/08/05 05:31:48;;;;;;;8.30;2.40;;;;;;;;;;4933240;29;20024;-74
2023/08/05 05:34:14;;;;;;;6.35;2.40;;;;;;;;;;4934653;29;20566;-74
2023/08/05 05:36:39;;;;;;;5.82;2.30;;;;;;;;;;4934730;29;20031;-75
2023/08/05 05:39:04;;;;;;;5.10;2.15;;;;;;;;;;4934624;29;20028;-75
2023/08/05 05:41:30;;;;;;;5.82;2.80;;;;;;;;;;4934813;29;20035;-75
2023/08/05 05:43:56;;;;;;;9.35;2.33;;;;;;;;;;4934521;29;20055;-74
2023/08/05 05:46:21;;;;;;;3.38;1.83;;;;;;;;;;4934932;29;20383;-75
2023/08/05 05:48:47;;;;;;;5.10;2.40;;;;;;;;;;4933231;29;20031;-75
2023/08/05 05:51:12;;;;;;;4.50;2.30;;;;;;;;;;4934445;29;20488;-75
2023/08/05 05:53:38;;;;;;;5.85;2.20;;;;;;;;;;4917368;29;20041;-74
2023/08/05 05:56:04;;;;;;;5.68;2.65;;;;;;;;;;4934488;29;20047;-75
2023/08/05 05:58:34;;;;;;;5.35;2.50;;;;;;;;;;4917671;29;20039;-76
2023/08/05 06:01:00;;;;;;;5.43;2.60;;;;;;;;;;4934336;29;20035;-75
2023/08/05 06:03:25;;;;;;;5.68;2.45;;;;;;;;;;4934246;29;20028;-74
2023/08/05 06:05:51;;;;;;;7.43;2.53;;;;;;;;;;4932734;29;20119;-73
2023/08/05 06:08:17;;;;;;;7.95;2.70;;;;;;;;;;4934650;29;20097;-75
2023/08/05 06:10:42;;;;;;;7.75;2.42;;;;;;;;;;4917464;29;20032;-75
2023/08/05 06:13:08;;;;;;;6.97;2.55;;;;;;;;;;4901583;29;20426;-74
2023/08/05 06:15:33;;;;;;;7.35;2.63;;;;;;;;;;4933391;29;20039;-74
2023/08/05 06:17:59;;;;;;;5.47;2.60;;;;;;;;;;4934700;29;20032;-74
2023/08/05 06:20:24;;;;;;;7.53;2.58;;;;;;;;;;4934927;29;20111;-75
2023/08/05 06:22:50;;;;;;;4.43;2.70;;;;;;;;;;4920702;29;20475;-74
2023/08/05 06:25:15;;;;;;;5.13;2.38;;;;;;;;;;4937626;29;20035;-75
2023/08/05 06:27:41;;;;;;;5.88;2.42;;;;;;;;;;4920834;29;20111;-75
2023/08/05 06:30:07;;;;;;;9.80;2.42;;;;;;;;;;4920964;29;20034;-75
2023/08/05 06:32:32;;;;;;;10.65;2.70;;;;;;;;;;4937544;29;20106;-75
2023/08/05 06:34:57;;;;;;;6.57;2.60;;;;;;;;;;4936424;29;20024;-75
2023/08/05 06:37:23;;;;;;;6.47;2.50;;;;;;;;;;4937882;29;20028;-74
2023/08/05 06:39:48;;;;;;;5.13;1.98;;;;;;;;;;4920737;29;20111;-76
2023/08/05 06:42:14;;;;;;;12.35;2.67;;;;;;;;;;4904866;29;20099;-75
2023/08/05 06:44:43;;;;;;;5.93;2.37;;;;;;;;;;4920881;29;20467;-76
2023/08/05 06:47:08;;;;;;;4.28;2.30;;;;;;;;;;4905258;29;20777;-77
2023/08/05 06:49:35;;;;;;;5.80;2.10;;;;;;;;;;4937693;29;20032;-74
2023/08/05 06:52:00;;;;;;;6.18;2.05;;;;;;;;;;4920497;29;20040;-75
2023/08/05 06:54:26;;;;;;;4.53;2.00;;;;;;;;;;4909299;29;20130;-74
2023/08/05 06:56:52;;;;;;;7.03;2.00;;;;;;;;;;4935474;29;20032;-72
2023/08/05 06:59:17;;;;;;;8.90;2.10;;;;;;;;;;4948866;29;20051;-74
2023/08/05 07:01:43;;;;;;;5.68;2.00;;;;;;;;;;4931936;29;20090;-75
2023/08/05 07:04:08;;;;;;;4.85;1.95;;;;;;;;;;4950317;29;20032;-74
2023/08/05 07:06:34;;;;;;;5.65;1.95;;;;;;;;;;4948603;29;20123;-75
2023/08/05 07:08:59;;;;;;;6.68;2.25;;;;;;;;;;4948072;29;20559;-73
2023/08/05 07:11:25;;;;;;;7.22;2.22;;;;;;;;;;4944441;29;20058;-75
2023/08/05 07:13:50;;;;;;;6.68;2.50;;;;;;;;;;4948975;29;20052;-75
2023/08/05 07:16:16;;;;;;;7.30;2.40;;;;;;;;;;4950926;29;20035;-75
2023/08/05 07:18:41;;;;;;;7.20;2.25;;;;;;;;;;4938546;29;20042;-75
2023/08/05 07:21:07;;;;;;;4.05;1.92;;;;;;;;;;4935875;29;20069;-75
2023/08/05 07:23:32;;;;;;;5.78;2.50;;;;;;;;;;4936750;29;20027;-76
2023/08/05 07:26:01;;;;;;;7.07;2.20;;;;;;;;;;4935647;29;20475;-75
2023/08/05 07:28:27;;;;;;;7.97;2.65;;;;;;;;;;4920234;29;20027;-74
2023/08/05 07:31:02;;;;;;;9.68;2.90;;;;;;;;;;4936011;29;20034;-74
2023/08/05 07:33:28;;;;;;;7.55;1.88;;;;;;;;;;4919618;29;20106;-74
2023/08/05 07:35:53;;;;;;;6.00;2.33;;;;;;;;;;4936811;29;20173;-75
2023/08/05 07:38:23;;;;;;;6.63;2.28;;;;;;;;;;4904303;29;20035;-74
2023/08/05 07:40:48;;;;;;;4.10;1.80;;;;;;;;;;4936656;29;20384;-75
2023/08/05 07:43:15;;;;;;;4.13;1.70;;;;;;;;;;4897827;29;20032;-75
2023/08/05 07:45:41;;;;;;;4.97;1.73;;;;;;;;;;4898616;29;20021;-75
2023/08/05 07:48:08;;;;;;;5.13;2.13;;;;;;;;;;4912871;29;20033;-75
2023/08/05 07:50:34;;;;;;;5.57;1.95;;;;;;;;;;4898332;29;20041;-73
2023/08/05 07:52:59;;;;;;;7.35;1.92;;;;;;;;;;4898103;29;20084;-74
2023/08/05 07:55:29;;;;;;;7.20;1.85;;;;;;;;;;4881679;29;20032;-75
2023/08/05 07:57:55;;;;;;;5.15;1.85;;;;;;;;;;4905977;29;20150;-74
2023/08/05 08:00:21;;;;;;;6.05;1.83;;;;;;;;;;4917032;29;20491;-74
2023/08/05 08:02:46;;;;;;;6.68;2.25;;;;;;;;;;4916582;29;20035;-73
2023/08/05 08:05:14;;;;;;;5.30;1.80;;;;;;;;;;4916808;29;20086;-74
2023/08/05 08:07:44;;;;;;;6.03;1.90;;;;;;;;;;4916895;29;20035;-76
2023/08/05 08:10:10;;;;;;;6.00;1.90;;;;;;;;;;4915804;29;20032;-75
2023/08/05 08:12:36;;;;;;;5.07;1.83;;;;;;;;;;4915433;29;20040;-76
2023/08/05 08:15:02;;;;;;;6.05;2.20;;;;;;;;;;4924801;29;20035;-75
2023/08/05 08:17:28;;;;;;;4.22;1.65;;;;;;;;;;4918618;29;20061;-75
2023/08/05 08:19:53;;;;;;;4.57;2.00;;;;;;;;;;4918485;29;20047;-74
2023/08/05 08:22:18;;;;;;;7.22;1.55;;;;;;;;;;4935254;29;20028;-74
2023/08/05 08:24:44;;;;;;;10.55;2.28;;;;;;;;;;4935566;29;20020;-75
2023/08/05 08:27:09;;;;;;;6.90;2.15;;;;;;;;;;4935323;29;20076;-75
2023/08/05 08:29:35;;;;;;;4.43;1.67;;;;;;;;;;4935360;29;20050;-75
2023/08/05 08:32:00;;;;;;;3.95;1.77;;;;;;;;;;4916495;29;20019;-75
2023/08/05 08:34:26;;;;;;;7.07;1.80;;;;;;;;;;4935296;29;20028;-75
2023/08/05 08:36:51;;;;;;;5.85;1.92;;;;;;;;;;4902700;29;20027;-75
2023/08/05 08:39:17;;;;;;;5.90;1.70;;;;;;;;;;4934240;29;20115;-74
2023/08/05 08:41:45;;;;;;;4.95;1.75;;;;;;;;;;4933895;29;20059;-74
2023/08/05 08:44:11;;;;;;;6.80;2.00;;;;;;;;;;4961460;23;20137;-78
2023/08/05 08:46:37;;;;;;;4.00;1.90;;;;;;;;;;4969077;28;20032;-77
2023/08/05 08:49:03;;;;;;;8.30;1.70;;;;;;;;;;4933174;29;20516;-77
2023/08/05 08:51:29;;;;;;;4.72;1.63;;;;;;;;;;4933961;29;20471;-76
2023/08/05 08:53:55;;;;;;;3.85;1.65;;;;;;;;;;4917981;29;20035;-78
2023/08/05 08:56:21;;;;;;;6.10;1.63;;;;;;;;;;4918356;29;20032;-75
2023/08/05 08:58:47;;;;;;;5.28;1.70;;;;;;;;;;4918074;29;20035;-76
2023/08/05 09:01:16;;;;;;;8.77;1.77;;;;;;;;;;4933565;29;20467;-76
2023/08/05 09:03:42;;;;;;;9.23;1.90;;;;;;;;;;4934697;29;20043;-77
2023/08/05 09:06:08;;;;;;;4.30;1.83;;;;;;;;;;4917365;29;20099;-77
2023/08/05 09:08:34;;;;;;;4.18;1.85;;;;;;;;;;4917823;29;20111;-78
2023/08/05 09:11:00;;;;;;;4.63;1.67;;;;;;;;;;4934687;29;20134;-77
2023/08/05 09:13:26;;;;;;;3.60;1.50;;;;;;;;;;4901867;29;20034;-76
2023/08/05 09:15:53;;;;;;;4.00;1.30;;;;;;;;;;4917595;29;20044;-77
2023/08/05 09:18:19;;;;;;;4.13;1.50;;;;;;;;;;4917591;29;20032;-76
2023/08/05 09:20:44;;;;;;;3.63;1.90;;;;;;;;;;4936584;29;20038;-77
2023/08/05 09:23:10;;;;;;;6.25;1.67;;;;;;;;;;4953587;28;20070;-77
2023/08/05 09:25:40;;;;;;;8.70;1.65;;;;;;;;;;4904778;29;20028;-77
2023/08/05 09:28:07;;;;;;;6.13;1.77;;;;;;;;;;4920584;29;20040;-78
2023/08/05 09:30:34;;;;;;;9.95;1.95;;;;;;;;;;4905145;29;20046;-78
2023/08/05 09:33:00;;;;;;;8.07;2.40;;;;;;;;;;4920460;29;20506;-78
2023/08/05 09:35:26;;;;;;;4.00;1.80;;;;;;;;;;4905232;29;20043;-78
2023/08/05 09:37:53;;;;;;;6.63;2.15;;;;;;;;;;4935466;29;20037;-78
2023/08/05 09:40:21;;;;;;;6.70;2.13;;;;;;;;;;4936317;29;20038;-77
2023/08/05 09:42:47;;;;;;;;;;;;;;;;;;4936464;29;20031;-78
2023/08/05 09:45:15;;;;;;;5.45;1.60;;;;;;;;;;4920610;29;19911;-77
2023/08/05 09:47:42;;;;;;;6.00;1.92;;;;;;;;;;4953404;29;20042;-77
2023/08/05 09:50:11;;;;;;;4.53;1.73;;;;;;;;;;4936254;29;20039;-77
2023/08/05 09:52:37;;;;;;;5.55;1.90;;;;;;;;;;4952230;28;20038;-76
2023/08/05 09:55:04;;;;;;;6.60;2.05;;;;;;;;;;4957104;29;20103;-76
2023/08/05 09:57:30;;;;;;;4.20;1.90;;;;;;;;;;4924334;29;20079;-77
2023/08/05 09:59:59;;;;;;;8.18;2.55;;;;;;;;;;4924124;29;20035;-77
2023/08/05 10:02:25;;;;;;;5.25;1.80;;;;;;;;;;4923767;29;20027;-77
2023/08/05 10:04:53;;;;;;;5.53;1.70;;;;;;;;;;4939906;29;20035;-77
2023/08/05 10:07:22;;;;;;;4.38;1.50;;;;;;;;;;4957051;29;20554;-77
2023/08/05 10:09:48;;;;;;;3.58;1.40;;;;;;;;;;4938589;29;20043;-77
2023/08/05 10:12:16;;;;;;;4.93;1.50;;;;;;;;;;4956768;29;20114;-77
2023/08/05 10:14:42;;;;;;;5.80;2.20;;;;;;;;;;4956959;29;20028;-77
2023/08/05 10:17:08;;;;;;;4.38;1.65;;;;;;;;;;4939765;29;20275;-77
2023/08/05 10:19:33;;;;;;;4.28;1.60;;;;;;;;;;4939589;29;20050;-77
2023/08/05 10:22:09;;;;;;;3.00;1.25;;;;;;;;;;4924114;29;20126;-77
2023/08/05 10:24:51;;;;;;;6.53;1.90;;;;;;;;;;4923658;29;20416;-77
2023/08/05 10:27:17;;;;;;;5.18;1.88;;;;;;;;;;4907270;29;20027;-77
2023/08/05 10:29:52;;;;;;;6.00;1.98;;;;;;;;;;4923757;29;20106;-77
2023/08/05 10:32:27;;;;;;;6.18;2.13;;;;;;;;;;4923724;28;20031;-77
2023/08/05 10:35:31;;;;;;;6.13;2.10;;;;;;;;;;4939876;29;20394;-78
2023/08/05 10:38:19;;;;;;;5.50;1.88;;;;;;;;;;4897170;29;20041;-77
2023/08/05 10:40:49;;;;;;;3.85;1.55;;;;;;;;;;4897375;29;20044;-78
2023/08/05 10:43:32;;;;;;;3.67;1.52;;;;;;;;;;4880267;29;20048;-78
2023/08/05 10:45:59;;;;;;;4.03;1.60;;;;;;;;;;4881710;29;20037;-77
2023/08/05 10:48:44;;;;;;;5.38;2.10;;;;;;;;;;4866098;29;20173;-77
2023/08/05 10:51:12;;;;;;;7.63;1.75;;;;;;;;;;4866212;29;20052;-77
2023/08/05 10:53:43;;;;;;;11.05;2.03;;;;;;;;;;4881210;29;20062;-76
2023/08/05 10:56:12;;;;;;;4.72;2.47;;;;;;;;;;4881531;29;20036;-77
2023/08/05 10:58:42;;;;;;;4.07;1.52;;;;;;;;;;4881516;29;20127;-78
2023/08/05 11:01:08;;;;;;;6.82;1.90;;;;;;;;;;4864913;29;20543;-77
2023/08/05 11:03:41;;;;;;;5.68;1.58;;;;;;;;;;4865618;29;20062;-77
2023/08/05 11:06:07;;;;;;;7.13;2.00;;;;;;;;;;4895430;29;20036;-77
2023/08/05 11:08:35;;;;;;;4.90;1.80;;;;;;;;;;4901978;29;20125;-77
2023/08/05 11:11:01;;;;;;;4.60;1.70;;;;;;;;;;4923238;29;20210;-75
2023/08/05 11:13:30;;;;;;;3.70;1.80;;;;;;;;;;4938699;29;20027;-78
2023/08/05 11:16:03;;;;;;;5.78;2.30;;;;;;;;;;4954853;29;20031;-77
2023/08/05 11:18:29;;;;;;;3.80;2.03;;;;;;;;;;4922815;29;20141;-78
2023/08/05 11:20:55;;;;;;;4.43;1.55;;;;;;;;;;4922890;29;20039;-77
2023/08/05 11:23:22;;;;;;;6.32;1.60;;;;;;;;;;4922468;29;20035;-78
2023/08/05 11:25:48;;;;;;;3.08;1.80;;;;;;;;;;4922600;29;20035;-76
2023/08/05 11:28:13;;;;;;;2.90;1.60;;;;;;;;;;4955523;29;20023;-76
2023/08/05 11:30:39;;;;;;;4.90;1.85;;;;;;;;;;4954760;29;20110;-79
2023/08/05 11:33:06;;;;;;;6.47;2.17;;;;;;;;;;4955285;29;20194;-78
2023/08/05 11:35:31;;;;;;;4.40;1.70;;;;;;;;;;4938308;29;20082;-77
2023/08/05 11:37:57;;;;;;;6.20;1.83;;;;;;;;;;4938364;29;20063;-77
2023/08/05 11:40:23;;;;;;;4.43;1.73;;;;;;;;;;4955463;29;20031;-76
2023/08/05 11:42:50;;;;;;;6.65;2.40;;;;;;;;;;4955044;29;20035;-76
2023/08/05 11:45:16;;;;;;;5.57;2.10;;;;;;;;;;4937147;29;20035;-75
2023/08/05 11:47:42;;;;;;;6.53;2.13;;;;;;;;;;4938249;29;20031;-77
2023/08/05 11:50:09;;;;;;;7.57;2.33;;;;;;;;;;4922000;29;20106;-77
2023/08/05 11:52:34;;;;;;;3.97;1.60;;;;;;;;;;4937958;29;20042;-76
2023/08/05 11:55:00;;;;;;;4.43;1.90;;;;;;;;;;4906801;29;20035;-77
2023/08/05 11:57:27;;;;;;;5.07;2.08;;;;;;;;;;4922175;29;20042;-77
2023/08/05 11:59:55;;;;;;;3.58;1.70;;;;;;;;;;4922129;29;20031;-77
2023/08/05 12:02:21;;;;;;;3.88;2.25;;;;;;;;;;4920957;29;20114;-75
2023/08/05 12:05:05;;;;;;;3.72;2.00;;;;;;;;;;4922056;29;20070;-77
2023/08/05 12:07:31;;;;;;;5.38;2.05;;;;;;;;;;4937719;29;20058;-77
2023/08/05 12:10:07;;;;;;;6.40;2.13;;;;;;;;;;4937628;29;20505;-77
2023/08/05 12:12:33;;;;;;;3.67;1.80;;;;;;;;;;4906268;29;20035;-77
2023/08/05 12:15:16;;;;;;;6.40;2.17;;;;;;;;;;4937818;29;20035;-78
2023/08/05 12:17:47;;;;;;;4.65;1.75;;;;;;;;;;4937639;29;20035;-78
2023/08/05 12:20:15;;;;;;;3.95;1.83;;;;;;;;;;4904840;29;20502;-77
2023/08/05 12:22:41;;;;;;;4.75;1.60;;;;;;;;;;4937341;29;20023;-77
2023/08/05 12:25:06;;;;;;;5.45;1.95;;;;;;;;;;4937582;29;20118;-77
2023/08/05 12:27:32;;;;;;;5.65;1.88;;;;;;;;;;4906003;29;20038;-77
2023/08/05 12:29:58;;;;;;;6.38;1.75;;;;;;;;;;4921600;29;20027;-78
2023/08/05 12:32:23;;;;;;;3.70;1.70;;;;;;;;;;4937102;29;20501;-76
2023/08/05 12:34:49;;;;;;;4.13;1.80;;;;;;;;;;4904877;29;20035;-75
2023/08/05 12:37:14;;;;;;;4.70;1.58;;;;;;;;;;4921462;29;20081;-75
2023/08/05 12:39:40;;;;;;;4.20;1.77;;;;;;;;;;4921354;29;20039;-78
2023/08/05 12:42:07;;;;;;;5.60;1.75;;;;;;;;;;4921659;29;20034;-77
2023/08/05 12:44:32;;;;;;;6.35;2.10;;;;;;;;;;4936975;29;20642;-76
2023/08/05 12:46:58;;;;;;;5.07;2.20;;;;;;;;;;4937047;29;20106;-77
2023/08/05 12:49:24;;;;;;;4.60;2.20;;;;;;;;;;4937033;29;20023;-78
2023/08/05 12:51:49;;;;;;;4.88;1.83;;;;;;;;;;4921610;29;20394;-77
2023/08/05 12:54:15;;;;;;;3.92;1.50;;;;;;;;;;4936130;29;20154;-77
2023/08/05 12:56:41;;;;;;;5.50;2.00;;;;;;;;;;4936906;29;20489;-77
2023/08/05 12:59:06;;;;;;;6.03;1.70;;;;;;;;;;4937116;29;20442;-78
2023/08/05 13:01:36;;;;;;;6.60;3.30;;;;;;;;;;4936897;29;20410;-77
2023/08/05 13:04:06;;;;;;;10.98;5.18;;;;;;;;;;4921411;29;20114;-77
2023/08/05 13:06:31;;;;;;;5.60;2.80;;;;;;;;;;4937091;29;20171;-77
2023/08/05 13:08:57;;;;;;;5.28;2.08;;;;;;;;;;4936881;29;20027;-77
2023/08/05 13:11:23;;;;;;;3.65;1.40;;;;;;;;;;4935764;29;20114;-77
2023/08/05 13:13:48;;;;;;;7.15;2.10;;;;;;;;;;4936650;29;20491;-77
2023/08/05 13:16:14;;;;;;;5.63;1.92;;;;;;;;;;4954024;29;20434;-77
2023/08/05 13:18:39;;;;;;;7.32;2.88;;;;;;;;;;4937374;29;20028;-78
2023/08/05 13:21:05;;;;;;;4.10;1.80;;;;;;;;;;4936568;29;20098;-76
2023/08/05 13:23:30;;;;;;;4.65;1.63;;;;;;;;;;4936404;29;20061;-77
2023/08/05 13:26:00;;;;;;;5.68;1.90;;;;;;;;;;4919718;29;20343;-78
2023/08/05 13:28:25;;;;;;;4.78;1.60;;;;;;;;;;4935897;29;20078;-77
2023/08/05 13:30:51;;;;;;;5.22;1.88;;;;;;;;;;4920993;29;20038;-77
2023/08/05 13:33:17;;;;;;;6.80;2.35;;;;;;;;;;4953679;28;20102;-77
2023/08/05 13:35:42;;;;;;;4.50;1.98;;;;;;;;;;4953671;29;20455;-76
2023/08/05 13:38:08;;;;;;;4.68;1.80;;;;;;;;;;4920811;29;20495;-77
2023/08/05 13:40:38;;;;;;;6.93;2.20;;;;;;;;;;4936674;29;20191;-77
2023/08/05 13:43:03;;;;;;;3.95;1.52;;;;;;;;;;4952386;29;20031;-77
2023/08/05 13:45:29;;;;;;;4.13;2.08;;;;;;;;;;4936854;29;20038;-78
2023/08/05 13:47:55;;;;;;;5.93;2.17;;;;;;;;;;4936612;29;20152;-78
2023/08/05 13:50:22;;;;;;;3.47;1.50;;;;;;;;;;4953840;29;20046;-77
2023/08/05 13:52:48;;;;;;;5.10;1.90;;;;;;;;;;4953450;29;20037;-77
2023/08/05 13:55:13;;;;;;;6.20;2.00;;;;;;;;;;4953674;29;20031;-77
2023/08/05 13:57:39;;;;;;;5.38;1.85;;;;;;;;;;4953486;29;20082;-77
2023/08/05 14:00:05;;;;;;;5.60;2.00;;;;;;;;;;4952729;29;20057;-77
2023/08/05 14:02:40;;;;;;;4.20;2.08;;;;;;;;;;4921801;29;20031;-78
2023/08/05 14:05:06;;;;;;;5.57;2.00;;;;;;;;;;4953399;29;20050;-77
2023/08/05 14:07:31;;;;;;;7.07;1.77;;;;;;;;;;4936523;29;20057;-77
2023/08/05 14:09:58;;;;;;;4.43;1.50;;;;;;;;;;4936269;29;20383;-77
2023/08/05 14:12:26;;;;;;;6.93;1.77;;;;;;;;;;4936061;29;20046;-77
2023/08/05 14:14:52;;;;;;;7.07;2.20;;;;;;;;;;4900796;29;20039;-77
2023/08/05 14:17:18;;;;;;;7.03;1.77;;;;;;;;;;4917221;29;20059;-77
2023/08/05 14:19:44;;;;;;;5.50;2.10;;;;;;;;;;4934088;29;20112;-78
2023/08/05 14:22:09;;;;;;;4.50;2.50;;;;;;;;;;4917029;29;20035;-77
2023/08/05 14:24:35;;;;;;;5.00;2.20;;;;;;;;;;4934088;29;20028;-77
2023/08/05 14:27:00;;;;;;;4.55;1.70;;;;;;;;;;4932831;29;20423;-78
2023/08/05 14:29:26;;;;;;;3.90;1.67;;;;;;;;;;4922320;29;20019;-78
2023/08/05 14:31:52;;;;;;;7.00;2.20;;;;;;;;;;4935823;29;20046;-78
2023/08/05 14:34:18;;;;;;;5.80;2.13;;;;;;;;;;4935726;29;20031;-77
2023/08/05 14:36:43;;;;;;;5.40;1.60;;;;;;;;;;4936074;29;20039;-77
2023/08/05 14:39:09;;;;;;;5.72;1.92;;;;;;;;;;4936501;29;20106;-77
2023/08/05 14:41:34;;;;;;;5.63;2.20;;;;;;;;;;4956366;29;20372;-77